createdAt,value
2022-12-01T00:02:05.792Z,17.58
2022-12-01T00:04:32.385Z,17.58
2022-12-01T00:06:58.933Z,16.85
2022-12-01T00:09:44.067Z,18.35
2022-12-01T00:12:10.390Z,17.00
2022-12-01T00:14:36.688Z,16.23
2022-12-01T00:17:04.835Z,16.10
2022-12-01T00:19:31.210Z,16.90
2022-12-01T00:21:57.565Z,17.77
2022-12-01T00:24:24.487Z,17.43
2022-12-01T00:26:50.854Z,15.55
2022-12-01T00:29:17.166Z,18.20
2022-12-01T00:31:43.500Z,16.17
2022-12-01T00:34:22.617Z,16.00
2022-12-01T00:36:49.387Z,16.83
2022-12-01T00:39:15.750Z,16.70
2022-12-01T00:41:42.116Z,16.67
2022-12-01T00:44:08.435Z,15.93
2022-12-01T00:46:34.792Z,16.13
2022-12-01T00:49:01.274Z,17.60
2022-12-01T00:51:27.603Z,17.27
2022-12-01T00:53:53.922Z,16.05
2022-12-01T00:56:21.166Z,15.68
2022-12-01T00:58:47.532Z,15.77
2022-12-01T01:01:14.014Z,16.90
2022-12-01T01:03:40.420Z,15.63
2022-12-01T01:06:10.271Z,15.68
2022-12-01T01:08:36.911Z,15.85
2022-12-01T01:11:04.157Z,16.63
2022-12-01T01:13:30.570Z,15.90
2022-12-01T01:16:06.393Z,16.27
2022-12-01T01:18:33.020Z,15.10
2022-12-01T01:21:07.897Z,15.07
2022-12-01T01:23:34.695Z,15.68
2022-12-01T01:26:02.953Z,16.30
2022-12-01T01:28:31.195Z,15.70
2022-12-01T01:30:58.064Z,15.68
2022-12-01T01:33:24.887Z,15.02
2022-12-01T01:35:53.074Z,14.40
2022-12-01T01:38:19.426Z,15.50
2022-12-01T01:40:46.623Z,15.05
2022-12-01T01:43:16.493Z,15.93
2022-12-01T01:45:43.211Z,14.98
2022-12-01T01:48:12.996Z,17.13
2022-12-01T01:50:39.810Z,14.30
2022-12-01T01:53:10.636Z,14.65
2022-12-01T01:55:37.790Z,14.50
2022-12-01T01:58:08.295Z,14.40
2022-12-01T02:00:35.903Z,14.55
2022-12-01T02:03:03.151Z,14.80
2022-12-01T02:05:32.521Z,16.38
2022-12-01T02:08:00.338Z,14.80
2022-12-01T02:11:04.319Z,17.00
2022-12-01T02:13:48.053Z,14.55
2022-12-01T02:16:24.515Z,15.80
2022-12-01T02:19:12.675Z,15.23
2022-12-01T02:21:51.070Z,18.60
2022-12-01T02:24:34.421Z,16.60
2022-12-01T02:27:28.374Z,15.32
2022-12-01T02:30:17.038Z,15.30
2022-12-01T02:32:54.947Z,15.43
2022-12-01T02:35:32.370Z,15.10
2022-12-01T02:38:28.745Z,15.45
2022-12-01T02:41:23.287Z,15.52
2022-12-01T02:44:03.349Z,16.07
2022-12-01T02:46:37.380Z,14.55
2022-12-01T02:49:10.049Z,16.10
2022-12-01T02:51:39.927Z,15.02
2022-12-01T02:54:07.070Z,16.92
2022-12-01T02:56:33.410Z,15.23
2022-12-01T02:58:59.786Z,15.98
2022-12-01T03:01:50.507Z,16.02
2022-12-01T03:04:29.841Z,15.38
2022-12-01T03:07:12.783Z,16.45
2022-12-01T03:09:52.808Z,16.20
2022-12-01T03:12:43.614Z,15.48
2022-12-01T03:15:25.023Z,16.55
2022-12-01T03:18:22.998Z,15.27
2022-12-01T03:20:59.326Z,15.48
2022-12-01T03:23:31.247Z,15.63
2022-12-01T03:26:01.751Z,15.93
2022-12-01T03:28:33.023Z,15.93
2022-12-01T03:31:07.919Z,16.08
2022-12-01T03:33:43.767Z,16.42
2022-12-01T03:36:19.438Z,15.27
2022-12-01T03:38:51.239Z,15.30
2022-12-01T03:41:22.622Z,15.75
2022-12-01T03:43:56.274Z,16.05
2022-12-01T03:46:41.003Z,14.68
2022-12-01T03:49:09.607Z,14.50
2022-12-01T03:52:06.938Z,14.48
2022-12-01T03:55:04.814Z,15.77
2022-12-01T03:57:55.526Z,14.93
2022-12-01T04:00:22.110Z,15.60
2022-12-01T04:02:48.923Z,13.97
2022-12-01T04:05:15.496Z,15.23
2022-12-01T04:07:41.888Z,15.85
2022-12-01T04:10:08.776Z,14.32
2022-12-01T04:12:35.116Z,15.40
2022-12-01T04:15:11.054Z,14.80
2022-12-01T04:17:37.568Z,14.38
2022-12-01T04:20:06.917Z,14.82
2022-12-01T04:22:33.891Z,14.57
2022-12-01T04:25:00.398Z,15.80
2022-12-01T04:27:26.714Z,14.47
2022-12-01T04:29:53.047Z,14.90
2022-12-01T04:32:19.478Z,13.82
2022-12-01T04:34:45.789Z,16.50
2022-12-01T04:37:12.516Z,15.23
2022-12-01T04:39:38.939Z,15.57
2022-12-01T04:42:05.504Z,16.48
2022-12-01T04:44:35.053Z,16.50
2022-12-01T04:47:02.592Z,16.02
2022-12-01T04:49:28.993Z,15.07
2022-12-01T04:51:55.532Z,15.77
2022-12-01T04:54:22.239Z,15.32
2022-12-01T04:56:48.695Z,15.45
2022-12-01T04:59:15.304Z,16.23
2022-12-01T05:01:41.744Z,15.63
2022-12-01T05:04:12.178Z,14.80
2022-12-01T05:06:38.558Z,16.23
2022-12-01T05:09:05.259Z,16.95
2022-12-01T05:11:32.538Z,15.63
2022-12-01T05:13:59.546Z,15.25
2022-12-01T05:16:29.889Z,16.80
2022-12-01T05:19:17.163Z,15.35
2022-12-01T05:21:45.382Z,14.25
2022-12-01T05:24:13.184Z,13.70
2022-12-01T05:26:40.358Z,15.07
2022-12-01T05:29:06.952Z,15.10
2022-12-01T05:31:33.338Z,14.90
2022-12-01T05:33:59.917Z,14.10
2022-12-01T05:36:26.367Z,15.75
2022-12-01T05:38:52.780Z,15.73
2022-12-01T05:41:19.259Z,13.60
2022-12-01T05:43:45.849Z,14.38
2022-12-01T05:46:12.321Z,16.77
2022-12-01T05:48:38.746Z,16.13
2022-12-01T05:51:13.503Z,15.77
2022-12-01T05:53:40.210Z,16.60
2022-12-01T05:56:08.223Z,16.95
2022-12-01T05:58:35.536Z,16.30
2022-12-01T06:01:02.244Z,15.00
2022-12-01T06:03:28.574Z,15.05
2022-12-01T06:05:54.977Z,14.77
2022-12-01T06:08:21.443Z,14.85
2022-12-01T06:10:48.029Z,15.75
2022-12-01T06:13:14.646Z,14.15
2022-12-01T06:15:41.086Z,14.82
2022-12-01T06:18:07.626Z,14.53
2022-12-01T06:20:33.954Z,15.02
2022-12-01T06:23:00.374Z,14.88
2022-12-01T06:25:26.739Z,14.30
2022-12-01T06:27:58.108Z,15.95
2022-12-01T06:30:25.507Z,14.70
2022-12-01T06:32:51.859Z,15.05
2022-12-01T06:35:18.326Z,14.25
2022-12-01T06:37:44.711Z,15.73
2022-12-01T06:40:11.642Z,13.35
2022-12-01T06:42:37.989Z,14.73
2022-12-01T06:45:05.485Z,14.68
2022-12-01T06:47:31.843Z,13.82
2022-12-01T06:49:58.177Z,13.65
2022-12-01T06:52:24.557Z,14.95
2022-12-01T06:54:50.909Z,14.47
2022-12-01T06:57:17.742Z,14.43
2022-12-01T06:59:44.510Z,13.93
2022-12-01T07:02:11.737Z,15.23
2022-12-01T07:04:38.149Z,13.85
2022-12-01T07:07:07.786Z,14.67
2022-12-01T07:09:34.530Z,14.45
2022-12-01T07:12:00.880Z,14.10
2022-12-01T07:14:27.865Z,15.13
2022-12-01T07:16:56.472Z,15.85
2022-12-01T07:19:25.240Z,13.93
2022-12-01T07:21:51.682Z,14.10
2022-12-01T07:24:18.026Z,17.60
2022-12-01T07:26:44.356Z,14.93
2022-12-01T07:29:10.970Z,13.63
2022-12-01T07:31:38.386Z,14.77
2022-12-01T07:34:05.666Z,14.13
2022-12-01T07:36:32.066Z,15.40
2022-12-01T07:38:58.469Z,14.93
2022-12-01T07:41:24.942Z,13.45
2022-12-01T07:43:51.300Z,16.87
2022-12-01T07:46:24.557Z,12.82
2022-12-01T07:48:55.522Z,15.05
2022-12-01T07:51:24.591Z,15.45
2022-12-01T07:53:52.071Z,15.10
2022-12-01T07:56:20.337Z,15.47
2022-12-01T07:58:47.192Z,16.40
2022-12-01T08:01:16.616Z,17.52
2022-12-01T08:03:44.053Z,17.52
2022-12-01T08:06:11.307Z,18.45
2022-12-01T08:13:42.140Z,18.70
2022-12-01T08:16:11.593Z,17.65
2022-12-01T08:18:39.648Z,18.67
2022-12-01T08:21:07.688Z,19.02
2022-12-01T08:23:34.280Z,20.48
2022-12-01T08:26:06.647Z,16.93
2022-12-01T08:28:36.050Z,20.00
2022-12-01T08:31:17.758Z,17.67
2022-12-01T08:33:44.918Z,19.50
2022-12-01T08:36:11.278Z,20.20
2022-12-01T08:38:38.060Z,19.53
2022-12-01T08:41:07.375Z,19.20
2022-12-01T08:43:56.563Z,19.98
2022-12-01T08:46:22.184Z,19.80
2022-12-01T08:48:48.594Z,19.73
2022-12-01T08:51:18.253Z,19.23
2022-12-01T08:53:48.633Z,19.67
2022-12-01T08:56:21.321Z,20.85
2022-12-01T08:58:48.184Z,18.58
2022-12-01T09:01:16.229Z,20.15
2022-12-01T09:03:43.704Z,19.27
2022-12-01T09:06:13.325Z,20.85
2022-12-01T09:08:41.170Z,20.50
2022-12-01T09:11:11.378Z,19.85
2022-12-01T09:13:39.463Z,21.48
2022-12-01T09:16:10.170Z,18.90
2022-12-01T09:18:36.619Z,20.25
2022-12-01T09:21:21.667Z,19.98
2022-12-01T09:23:48.730Z,21.08
2022-12-01T09:26:19.009Z,20.73
2022-12-01T09:28:52.410Z,20.50
2022-12-01T09:31:20.562Z,20.08
2022-12-01T09:33:47.038Z,19.73
2022-12-01T09:36:13.639Z,20.67
2022-12-01T09:38:40.398Z,20.55
2022-12-01T09:41:30.637Z,22.27
2022-12-01T09:44:05.547Z,20.00
2022-12-01T09:46:37.777Z,21.88
2022-12-01T09:49:12.493Z,21.45
2022-12-01T09:51:38.942Z,19.90
2022-12-01T09:54:06.988Z,22.10
2022-12-01T09:56:42.770Z,20.38
2022-12-01T09:59:17.926Z,20.27
2022-12-01T10:01:48.119Z,20.05
2022-12-01T10:04:24.893Z,20.42
2022-12-01T10:07:06.175Z,20.30
2022-12-01T10:09:35.493Z,22.40
2022-12-01T10:12:11.086Z,21.25
2022-12-01T10:14:37.899Z,20.58
2022-12-01T10:17:13.311Z,21.35
2022-12-01T10:19:55.171Z,20.87
2022-12-01T10:22:45.426Z,20.45
2022-12-01T10:25:25.441Z,21.67
2022-12-01T10:28:10.486Z,21.75
2022-12-01T10:30:48.272Z,22.63
2022-12-01T10:33:33.031Z,21.30
2022-12-01T10:35:59.446Z,21.98
2022-12-01T10:38:35.781Z,21.65
2022-12-01T10:41:05.439Z,20.60
2022-12-01T10:43:37.718Z,21.13
2022-12-01T10:46:19.194Z,21.97
2022-12-01T10:49:11.281Z,21.73
2022-12-01T10:51:55.633Z,19.73
2022-12-01T10:54:35.897Z,20.98
2022-12-01T10:57:04.004Z,21.40
2022-12-01T10:59:35.703Z,21.47
2022-12-01T11:02:03.766Z,22.58
2022-12-01T11:04:45.136Z,20.88
2022-12-01T11:07:18.268Z,21.50
2022-12-01T11:09:47.117Z,20.85
2022-12-01T11:12:20.029Z,18.97
2022-12-01T11:14:55.494Z,21.75
2022-12-01T11:17:32.887Z,21.98
2022-12-01T11:20:16.722Z,20.23
2022-12-01T11:22:43.143Z,21.23
2022-12-01T11:25:22.610Z,19.33
2022-12-01T11:27:57.431Z,20.52
2022-12-01T11:30:26.490Z,19.00
2022-12-01T11:32:56.396Z,21.67
2022-12-01T11:35:26.206Z,20.45
2022-12-01T11:38:27.892Z,20.33
2022-12-01T11:41:00.365Z,20.70
2022-12-01T11:43:30.244Z,18.85
2022-12-01T11:45:59.747Z,18.55
2022-12-01T11:48:28.897Z,20.95
2022-12-01T11:51:04.342Z,20.00
2022-12-01T11:53:32.291Z,19.38
2022-12-01T11:56:35.513Z,19.50
2022-12-01T11:59:06.731Z,18.13
2022-12-01T12:01:57.806Z,18.17
2022-12-01T12:04:52.862Z,18.43
2022-12-01T12:07:56.808Z,18.08
2022-12-01T12:10:51.191Z,19.38
2022-12-01T12:13:42.103Z,19.40
2022-12-01T12:16:38.209Z,20.58
2022-12-01T12:19:34.115Z,19.30
2022-12-01T12:22:11.478Z,19.25
2022-12-01T12:25:02.555Z,19.45
2022-12-01T12:27:50.241Z,19.92
2022-12-01T12:30:29.902Z,20.27
2022-12-01T12:33:19.823Z,19.97
2022-12-01T12:36:14.268Z,19.23
2022-12-01T12:39:16.464Z,19.02
2022-12-01T12:41:50.634Z,18.38
2022-12-01T12:44:38.503Z,18.95
2022-12-01T12:47:36.337Z,17.83
2022-12-01T12:50:36.754Z,17.48
2022-12-01T12:53:14.063Z,17.42
2022-12-01T12:55:46.353Z,17.65
2022-12-01T12:58:23.692Z,19.42
2022-12-01T13:01:01.359Z,18.43
2022-12-01T13:04:05.358Z,16.35
2022-12-01T13:06:43.403Z,17.23
2022-12-01T13:09:13.175Z,16.80
2022-12-01T13:11:56.809Z,16.10
2022-12-01T13:14:28.718Z,17.27
2022-12-01T13:17:02.719Z,16.88
2022-12-01T13:19:33.455Z,15.98
2022-12-01T13:22:01.488Z,17.65
2022-12-01T13:24:35.656Z,16.15
2022-12-01T13:27:15.558Z,17.30
2022-12-01T13:29:47.772Z,17.33
2022-12-01T13:32:26.556Z,17.63
2022-12-01T13:34:53.541Z,18.25
2022-12-01T13:37:45.902Z,18.52
2022-12-01T13:40:23.601Z,18.07
2022-12-01T13:43:04.204Z,17.27
2022-12-01T13:48:48.741Z,16.80
2022-12-01T13:51:15.414Z,17.65
2022-12-01T13:54:03.524Z,16.00
2022-12-01T13:56:43.857Z,17.15
2022-12-01T14:00:03.232Z,17.73
2022-12-01T14:02:32.047Z,16.10
2022-12-01T14:05:40.798Z,17.70
2022-12-01T14:08:28.245Z,16.27
2022-12-01T14:11:00.676Z,16.60
2022-12-01T14:13:28.807Z,16.42
2022-12-01T14:16:06.709Z,16.58
2022-12-01T14:18:43.217Z,15.98
2022-12-01T14:21:12.590Z,15.50
2022-12-01T14:24:01.663Z,16.27
2022-12-01T14:26:30.725Z,16.27
2022-12-01T14:29:00.041Z,15.43
2022-12-01T14:31:32.128Z,17.73
2022-12-01T14:34:24.398Z,15.80
2022-12-01T14:37:02.879Z,14.82
2022-12-01T14:39:35.967Z,15.82
2022-12-01T14:42:11.181Z,16.08
2022-12-01T14:44:48.941Z,17.02
2022-12-01T14:47:22.475Z,16.40
2022-12-01T14:50:01.558Z,17.38
2022-12-01T14:52:27.839Z,17.00
2022-12-01T14:54:57.881Z,16.88
2022-12-01T14:57:47.575Z,16.63
2022-12-01T15:00:23.086Z,15.80
2022-12-01T15:02:59.802Z,16.00
2022-12-01T15:05:28.821Z,15.57
2022-12-01T15:08:33.233Z,15.75
2022-12-01T15:10:54.880Z,14.55
2022-12-01T15:13:30.527Z,16.67
2022-12-01T15:15:59.474Z,15.80
2022-12-01T15:18:34.679Z,16.88
2022-12-01T15:21:13.685Z,16.33
2022-12-01T15:23:55.488Z,16.58
2022-12-01T15:26:24.464Z,15.73
2022-12-01T15:29:04.556Z,13.52
2022-12-01T15:31:34.920Z,14.88
2022-12-01T15:34:01.947Z,15.80
2022-12-01T15:36:28.522Z,15.55
2022-12-01T15:38:55.416Z,15.67
2022-12-01T15:41:30.986Z,14.85
2022-12-01T15:44:01.861Z,15.20
2022-12-01T15:46:34.456Z,15.35
2022-12-01T15:49:08.385Z,15.65
2022-12-01T15:51:35.046Z,14.07
2022-12-01T15:54:02.509Z,14.05
2022-12-01T15:56:33.208Z,14.35
2022-12-01T15:59:16.717Z,14.25
2022-12-01T16:01:44.266Z,16.90
2022-12-01T16:04:18.791Z,15.27
2022-12-01T16:07:03.643Z,13.57
2022-12-01T16:09:37.401Z,13.30
2022-12-01T16:12:13.072Z,16.27
2022-12-01T16:14:49.759Z,15.15
2022-12-01T16:17:17.097Z,15.63
2022-12-01T16:19:45.362Z,15.52
2022-12-01T16:22:11.614Z,16.65
2022-12-01T16:24:45.669Z,17.85
2022-12-01T16:27:31.638Z,16.70
2022-12-01T16:30:01.959Z,15.60
2022-12-01T16:32:40.438Z,16.52
2022-12-01T16:35:27.600Z,14.75
2022-12-01T16:37:54.814Z,12.75
2022-12-01T16:40:24.138Z,12.80
2022-12-01T16:42:50.628Z,10.60
2022-12-01T16:45:18.804Z,10.45
2022-12-01T16:47:47.720Z,12.93
2022-12-01T16:50:19.075Z,11.50
2022-12-01T16:52:46.081Z,13.50
2022-12-01T16:55:24.800Z,15.37
2022-12-01T16:57:51.190Z,13.85
2022-12-01T17:00:17.854Z,14.48
2022-12-01T17:02:44.350Z,13.32
2022-12-01T17:05:11.702Z,15.13
2022-12-01T17:07:38.065Z,15.47
2022-12-01T17:10:05.460Z,15.60
2022-12-01T17:12:31.818Z,14.52
2022-12-01T17:14:58.186Z,14.38
2022-12-01T17:17:24.551Z,13.82
2022-12-01T17:19:54.212Z,13.70
2022-12-01T17:22:21.046Z,13.80
2022-12-01T17:24:47.641Z,13.38
2022-12-01T17:27:14.137Z,15.50
2022-12-01T17:29:45.652Z,16.33
2022-12-01T17:32:13.808Z,16.17
2022-12-01T17:34:40.204Z,15.93
2022-12-01T17:37:06.982Z,15.82
2022-12-01T17:39:33.596Z,15.43
2022-12-01T17:42:00.130Z,13.90
2022-12-01T17:44:26.710Z,14.03
2022-12-01T17:46:53.091Z,14.32
2022-12-01T17:49:19.539Z,14.38
2022-12-01T17:51:45.910Z,12.25
2022-12-01T17:54:12.441Z,14.13
2022-12-01T17:56:38.925Z,11.63
2022-12-01T17:59:05.376Z,11.48
2022-12-01T18:01:31.997Z,10.88
2022-12-01T18:03:58.904Z,9.52
2022-12-01T18:06:26.682Z,12.35
2022-12-01T18:08:53.550Z,11.87
2022-12-01T18:11:20.547Z,14.48
2022-12-01T18:13:49.291Z,11.90
2022-12-01T18:16:21.275Z,11.18
2022-12-01T18:18:48.227Z,10.93
2022-12-01T18:21:16.703Z,11.73
2022-12-01T18:23:51.285Z,10.60
2022-12-01T18:26:19.003Z,11.93
2022-12-01T18:28:45.561Z,11.20
2022-12-01T18:31:14.802Z,12.00
2022-12-01T18:33:42.987Z,12.67
2022-12-01T18:36:12.851Z,13.38
2022-12-01T18:38:39.657Z,13.77
2022-12-01T18:41:06.039Z,13.68
2022-12-01T18:43:32.605Z,14.45
2022-12-01T18:45:59.719Z,14.17
2022-12-01T18:48:26.812Z,14.13
2022-12-01T18:50:59.090Z,14.63
2022-12-01T18:53:25.837Z,13.32
2022-12-01T18:55:52.151Z,11.50
2022-12-01T18:58:18.479Z,13.47
2022-12-01T19:00:44.958Z,13.40
2022-12-01T19:03:11.496Z,12.88
2022-12-01T19:05:38.855Z,13.25
2022-12-01T19:08:06.400Z,12.45
2022-12-01T19:10:34.964Z,11.67
2022-12-01T19:13:01.355Z,11.25
2022-12-01T19:15:27.732Z,12.15
2022-12-01T19:17:54.917Z,13.32
2022-12-01T19:20:21.306Z,13.90
2022-12-01T19:22:47.974Z,14.00
2022-12-01T19:25:14.558Z,14.00
2022-12-01T19:27:41.232Z,14.20
2022-12-01T19:30:08.081Z,15.60
2022-12-01T19:32:34.566Z,13.95
2022-12-01T19:35:00.862Z,14.47
2022-12-01T19:37:27.268Z,13.38
2022-12-01T19:39:53.590Z,13.77
2022-12-01T19:42:19.954Z,13.30
2022-12-01T19:44:46.435Z,14.85
2022-12-01T19:47:13.974Z,13.53
2022-12-01T19:49:42.881Z,14.70
2022-12-01T19:52:09.225Z,16.02
2022-12-01T19:54:37.548Z,16.27
2022-12-01T19:57:03.988Z,15.32
2022-12-01T19:59:30.326Z,15.67
2022-12-01T20:02:02.207Z,14.68
2022-12-01T20:04:30.660Z,15.25
2022-12-01T20:06:57.099Z,13.88
2022-12-01T20:09:23.480Z,13.82
2022-12-01T20:11:49.914Z,13.40
2022-12-01T20:14:16.311Z,13.68
2022-12-01T20:16:42.708Z,13.10
2022-12-01T20:19:10.446Z,14.23
2022-12-01T20:21:44.861Z,14.23
2022-12-01T20:24:13.958Z,15.10
2022-12-01T20:26:46.685Z,14.88
2022-12-01T20:29:16.639Z,14.85
2022-12-01T20:31:45.335Z,14.60
2022-12-01T20:34:18.227Z,16.77
2022-12-01T20:36:44.849Z,15.43
2022-12-01T20:39:12.138Z,16.70
2022-12-01T20:41:40.176Z,16.17
2022-12-01T20:44:07.995Z,16.48
2022-12-01T20:46:36.489Z,17.48
2022-12-01T20:49:04.691Z,18.60
2022-12-01T20:51:34.003Z,17.88
2022-12-01T20:56:48.596Z,17.48
2022-12-01T20:59:14.970Z,19.10
2022-12-01T21:01:41.439Z,17.73
2022-12-01T21:04:10.751Z,19.13
2022-12-01T21:06:37.154Z,18.23
2022-12-01T21:09:04.564Z,17.85
2022-12-01T21:11:54.939Z,18.58
2022-12-01T21:14:28.111Z,17.83
2022-12-01T21:16:58.892Z,17.30
2022-12-01T21:20:05.265Z,17.80
2022-12-01T21:22:31.802Z,15.93
2022-12-01T21:25:15.668Z,18.60
2022-12-01T21:27:42.238Z,17.13
2022-12-01T21:30:21.784Z,17.92
2022-12-01T21:32:49.661Z,17.58
2022-12-01T21:35:24.779Z,18.60
2022-12-01T21:37:58.009Z,17.63
2022-12-01T21:40:26.807Z,18.27
2022-12-01T21:42:53.278Z,19.00
2022-12-01T21:45:29.309Z,18.85
2022-12-01T21:48:00.534Z,18.45
2022-12-01T21:50:27.312Z,18.15
2022-12-01T21:52:53.778Z,17.60
2022-12-01T21:55:20.010Z,19.25
2022-12-01T21:57:53.164Z,18.00
2022-12-01T22:00:30.310Z,17.35
2022-12-01T22:03:08.898Z,18.55
2022-12-01T22:05:40.402Z,17.07
2022-12-01T22:08:29.108Z,19.10
2022-12-01T22:11:15.998Z,19.77
2022-12-01T22:13:49.574Z,17.58
2022-12-01T22:16:28.326Z,18.45
2022-12-01T22:19:00.977Z,19.00
2022-12-01T22:21:31.859Z,19.27
2022-12-01T22:24:04.591Z,17.33
2022-12-01T22:26:31.866Z,17.58
2022-12-01T22:28:59.741Z,19.77
2022-12-01T22:31:27.771Z,17.97
2022-12-01T22:34:03.387Z,19.98
2022-12-01T22:36:33.481Z,20.92
2022-12-01T22:39:00.603Z,21.45
2022-12-01T22:41:28.662Z,19.95
2022-12-01T22:44:00.462Z,18.07
2022-12-01T22:46:34.003Z,18.20
2022-12-01T22:49:23.970Z,20.15
2022-12-01T22:52:01.234Z,19.33
2022-12-01T22:54:32.084Z,18.13
2022-12-01T22:57:07.602Z,18.57
2022-12-01T22:59:36.618Z,21.05
2022-12-01T23:02:24.877Z,21.00
2022-12-01T23:04:59.557Z,20.88
2022-12-01T23:07:30.319Z,21.92
2022-12-01T23:10:02.219Z,19.40
2022-12-01T23:12:31.459Z,21.20
2022-12-01T23:15:07.381Z,21.08
2022-12-01T23:17:35.611Z,21.02
2022-12-01T23:20:21.774Z,21.95
2022-12-01T23:22:49.823Z,18.03
2022-12-01T23:25:19.428Z,21.15
2022-12-01T23:27:50.765Z,19.52
2022-12-01T23:30:20.471Z,20.90
2022-12-01T23:33:00.810Z,19.20
2022-12-01T23:35:27.281Z,20.17
2022-12-01T23:37:54.114Z,20.35
2022-12-01T23:40:30.935Z,19.60
2022-12-01T23:43:18.488Z,19.27
2022-12-01T23:45:51.395Z,20.67
2022-12-01T23:48:25.099Z,21.50
2022-12-01T23:50:54.239Z,20.65
2022-12-01T23:53:32.253Z,22.00
2022-12-01T23:56:07.148Z,20.48
2022-12-01T23:58:34.169Z,20.63
